sensor_id;sensor_type;location;lat;lon;timestamp;temperature;humidity
11136;DHT22;5622;50.840;4.948;2023-05-29T00:02:08;16.30;99.90
11136;DHT22;5622;50.840;4.948;2023-05-29T00:04:35;16.30;99.90
11136;DHT22;5622;50.840;4.948;2023-05-29T00:07:03;16.20;99.90
11136;DHT22;5622;50.840;4.948;2023-05-29T00:09:30;16.20;99.90
11136;DHT22;5622;50.840;4.948;2023-05-29T00:11:57;16.20;99.90
11136;DHT22;5622;50.840;4.948;2023-05-29T00:14:25;16.10;99.90
11136;DHT22;5622;50.840;4.948;2023-05-29T00:16:53;16.10;99.90
11136;DHT22;5622;50.840;4.948;2023-05-29T00:19:22;16.00;99.90
11136;DHT22;5622;50.840;4.948;2023-05-29T00:21:50;16.00;99.90
11136;DHT22;5622;50.840;4.948;2023-05-29T00:24:17;16.00;99.90
11136;DHT22;5622;50.840;4.948;2023-05-29T00:26:45;15.90;99.90
11136;DHT22;5622;50.840;4.948;2023-05-29T00:29:12;15.90;99.90
11136;DHT22;5622;50.840;4.948;2023-05-29T00:31:40;15.90;99.90
11136;DHT22;5622;50.840;4.948;2023-05-29T00:34:08;15.90;99.90
11136;DHT22;5622;50.840;4.948;2023-05-29T00:36:35;15.80;99.90
11136;DHT22;5622;50.840;4.948;2023-05-29T00:39:03;15.80;99.90
11136;DHT22;5622;50.840;4.948;2023-05-29T00:41:30;15.70;99.90
11136;DHT22;5622;50.840;4.948;2023-05-29T00:43:57;15.70;99.90
11136;DHT22;5622;50.840;4.948;2023-05-29T00:46:24;15.70;99.90
11136;DHT22;5622;50.840;4.948;2023-05-29T00:48:52;15.70;99.90
11136;DHT22;5622;50.840;4.948;2023-05-29T00:51:21;15.60;99.90
11136;DHT22;5622;50.840;4.948;2023-05-29T00:53:50;15.60;99.90
11136;DHT22;5622;50.840;4.948;2023-05-29T00:56:18;15.50;99.90
11136;DHT22;5622;50.840;4.948;2023-05-29T00:58:47;15.50;99.90
11136;DHT22;5622;50.840;4.948;2023-05-29T01:01:15;15.50;99.90
11136;DHT22;5622;50.840;4.948;2023-05-29T01:03:42;15.50;99.90
11136;DHT22;5622;50.840;4.948;2023-05-29T01:06:10;15.40;99.90
11136;DHT22;5622;50.840;4.948;2023-05-29T01:08:39;15.40;99.90
11136;DHT22;5622;50.840;4.948;2023-05-29T01:11:13;15.40;99.90
11136;DHT22;5622;50.840;4.948;2023-05-29T01:13:45;15.30;99.90
11136;DHT22;5622;50.840;4.948;2023-05-29T01:16:16;15.30;99.90
11136;DHT22;5622;50.840;4.948;2023-05-29T01:18:51;15.20;99.90
11136;DHT22;5622;50.840;4.948;2023-05-29T01:21:27;15.20;99.90
11136;DHT22;5622;50.840;4.948;2023-05-29T01:24:14;15.20;99.90
11136;DHT22;5622;50.840;4.948;2023-05-29T01:26:47;15.20;99.90
11136;DHT22;5622;50.840;4.948;2023-05-29T01:29:18;15.20;99.90
11136;DHT22;5622;50.840;4.948;2023-05-29T01:31:47;15.10;99.90
11136;DHT22;5622;50.840;4.948;2023-05-29T01:34:15;15.10;99.90
11136;DHT22;5622;50.840;4.948;2023-05-29T01:36:42;15.10;99.90
11136;DHT22;5622;50.840;4.948;2023-05-29T01:39:09;15.00;99.90
11136;DHT22;5622;50.840;4.948;2023-05-29T01:41:37;15.00;99.90
11136;DHT22;5622;50.840;4.948;2023-05-29T01:44:08;15.00;99.90
11136;DHT22;5622;50.840;4.948;2023-05-29T01:46:36;14.90;99.90
11136;DHT22;5622;50.840;4.948;2023-05-29T01:49:05;14.80;99.90
11136;DHT22;5622;50.840;4.948;2023-05-29T01:51:32;14.80;99.90
11136;DHT22;5622;50.840;4.948;2023-05-29T01:54:01;14.90;99.90
11136;DHT22;5622;50.840;4.948;2023-05-29T01:56:29;14.80;99.90
11136;DHT22;5622;50.840;4.948;2023-05-29T01:58:57;14.80;99.90
11136;DHT22;5622;50.840;4.948;2023-05-29T02:01:26;14.70;99.90
11136;DHT22;5622;50.840;4.948;2023-05-29T02:03:53;14.70;99.90
11136;DHT22;5622;50.840;4.948;2023-05-29T02:06:20;14.70;99.90
11136;DHT22;5622;50.840;4.948;2023-05-29T02:08:48;14.60;99.90
11136;DHT22;5622;50.840;4.948;2023-05-29T02:11:15;14.50;99.90
11136;DHT22;5622;50.840;4.948;2023-05-29T02:13:42;14.50;99.90
11136;DHT22;5622;50.840;4.948;2023-05-29T02:16:09;14.60;99.90
11136;DHT22;5622;50.840;4.948;2023-05-29T02:18:38;14.60;99.90
11136;DHT22;5622;50.840;4.948;2023-05-29T02:21:06;14.50;99.90
11136;DHT22;5622;50.840;4.948;2023-05-29T02:23:34;14.50;99.90
11136;DHT22;5622;50.840;4.948;2023-05-29T02:26:01;14.50;99.90
11136;DHT22;5622;50.840;4.948;2023-05-29T02:28:28;14.40;99.90
11136;DHT22;5622;50.840;4.948;2023-05-29T02:30:55;14.40;99.90
11136;DHT22;5622;50.840;4.948;2023-05-29T02:33:22;14.40;99.90
11136;DHT22;5622;50.840;4.948;2023-05-29T02:35:51;14.40;99.90
11136;DHT22;5622;50.840;4.948;2023-05-29T02:38:18;14.40;99.90
11136;DHT22;5622;50.840;4.948;2023-05-29T02:40:45;14.30;99.90
11136;DHT22;5622;50.840;4.948;2023-05-29T02:43:13;14.30;99.90
11136;DHT22;5622;50.840;4.948;2023-05-29T02:45:40;14.30;99.90
11136;DHT22;5622;50.840;4.948;2023-05-29T02:48:07;14.20;99.90
11136;DHT22;5622;50.840;4.948;2023-05-29T02:50:34;14.20;99.90
11136;DHT22;5622;50.840;4.948;2023-05-29T02:53:03;14.20;99.90
11136;DHT22;5622;50.840;4.948;2023-05-29T02:55:30;14.20;99.90
11136;DHT22;5622;50.840;4.948;2023-05-29T02:58:01;14.20;99.90
11136;DHT22;5622;50.840;4.948;2023-05-29T03:00:29;14.10;99.90
11136;DHT22;5622;50.840;4.948;2023-05-29T03:02:56;14.10;99.90
11136;DHT22;5622;50.840;4.948;2023-05-29T03:05:23;14.00;99.90
11136;DHT22;5622;50.840;4.948;2023-05-29T03:07:51;14.00;99.90
11136;DHT22;5622;50.840;4.948;2023-05-29T03:10:19;14.00;99.90
11136;DHT22;5622;50.840;4.948;2023-05-29T03:12:47;14.00;99.90
11136;DHT22;5622;50.840;4.948;2023-05-29T03:15:15;13.90;99.90
11136;DHT22;5622;50.840;4.948;2023-05-29T03:17:42;13.90;99.90
11136;DHT22;5622;50.840;4.948;2023-05-29T03:20:10;13.80;99.90
11136;DHT22;5622;50.840;4.948;2023-05-29T03:22:37;13.80;99.90
11136;DHT22;5622;50.840;4.948;2023-05-29T03:25:05;13.80;99.90
11136;DHT22;5622;50.840;4.948;2023-05-29T03:27:34;13.80;99.90
11136;DHT22;5622;50.840;4.948;2023-05-29T03:30:01;13.70;99.90
11136;DHT22;5622;50.840;4.948;2023-05-29T03:32:28;13.70;99.90
11136;DHT22;5622;50.840;4.948;2023-05-29T03:34:55;13.60;99.90
11136;DHT22;5622;50.840;4.948;2023-05-29T03:37:23;13.60;99.90
11136;DHT22;5622;50.840;4.948;2023-05-29T03:39:50;13.60;99.90
11136;DHT22;5622;50.840;4.948;2023-05-29T03:42:18;13.50;99.90
11136;DHT22;5622;50.840;4.948;2023-05-29T03:44:46;13.50;99.90
11136;DHT22;5622;50.840;4.948;2023-05-29T03:47:13;13.50;99.90
11136;DHT22;5622;50.840;4.948;2023-05-29T03:49:40;13.50;99.90
11136;DHT22;5622;50.840;4.948;2023-05-29T03:52:08;13.40;99.90
11136;DHT22;5622;50.840;4.948;2023-05-29T03:54:35;13.40;99.90
11136;DHT22;5622;50.840;4.948;2023-05-29T03:57:02;13.40;99.90
11136;DHT22;5622;50.840;4.948;2023-05-29T03:59:31;13.30;99.90
11136;DHT22;5622;50.840;4.948;2023-05-29T04:02:00;13.30;99.90
11136;DHT22;5622;50.840;4.948;2023-05-29T04:04:27;13.30;99.90
11136;DHT22;5622;50.840;4.948;2023-05-29T04:06:54;13.30;99.90
11136;DHT22;5622;50.840;4.948;2023-05-29T04:09:21;13.30;99.90
11136;DHT22;5622;50.840;4.948;2023-05-29T04:11:48;13.30;99.90
11136;DHT22;5622;50.840;4.948;2023-05-29T04:14:17;13.30;99.90
11136;DHT22;5622;50.840;4.948;2023-05-29T04:16:44;13.30;99.90
11136;DHT22;5622;50.840;4.948;2023-05-29T04:19:13;13.20;99.90
11136;DHT22;5622;50.840;4.948;2023-05-29T04:21:40;13.20;99.90
11136;DHT22;5622;50.840;4.948;2023-05-29T04:24:07;13.20;99.90
11136;DHT22;5622;50.840;4.948;2023-05-29T04:26:35;13.20;99.90
11136;DHT22;5622;50.840;4.948;2023-05-29T04:29:06;13.20;99.90
11136;DHT22;5622;50.840;4.948;2023-05-29T04:31:33;13.20;99.90
11136;DHT22;5622;50.840;4.948;2023-05-29T04:34:02;13.20;99.90
11136;DHT22;5622;50.840;4.948;2023-05-29T04:36:31;13.20;99.90
11136;DHT22;5622;50.840;4.948;2023-05-29T04:38:59;13.10;99.90
11136;DHT22;5622;50.840;4.948;2023-05-29T04:41:27;13.10;99.90
11136;DHT22;5622;50.840;4.948;2023-05-29T04:43:57;13.10;99.90
11136;DHT22;5622;50.840;4.948;2023-05-29T04:46:24;13.00;99.90
11136;DHT22;5622;50.840;4.948;2023-05-29T04:48:51;13.00;99.90
11136;DHT22;5622;50.840;4.948;2023-05-29T04:51:19;13.00;99.90
11136;DHT22;5622;50.840;4.948;2023-05-29T04:53:50;13.00;99.90
11136;DHT22;5622;50.840;4.948;2023-05-29T04:56:18;13.00;99.90
11136;DHT22;5622;50.840;4.948;2023-05-29T04:58:46;13.00;99.90
11136;DHT22;5622;50.840;4.948;2023-05-29T05:01:13;13.10;99.90
11136;DHT22;5622;50.840;4.948;2023-05-29T05:03:40;13.00;99.90
11136;DHT22;5622;50.840;4.948;2023-05-29T05:06:07;13.00;99.90
11136;DHT22;5622;50.840;4.948;2023-05-29T05:08:35;13.00;99.90
11136;DHT22;5622;50.840;4.948;2023-05-29T05:11:03;13.10;99.90
11136;DHT22;5622;50.840;4.948;2023-05-29T05:13:31;13.10;99.90
11136;DHT22;5622;50.840;4.948;2023-05-29T05:15:59;13.00;99.90
11136;DHT22;5622;50.840;4.948;2023-05-29T05:18:26;13.10;99.90
11136;DHT22;5622;50.840;4.948;2023-05-29T05:20:53;13.10;99.90
11136;DHT22;5622;50.840;4.948;2023-05-29T05:23:20;13.10;99.90
11136;DHT22;5622;50.840;4.948;2023-05-29T05:25:47;13.10;99.90
11136;DHT22;5622;50.840;4.948;2023-05-29T05:28:16;13.10;99.90
11136;DHT22;5622;50.840;4.948;2023-05-29T05:30:43;13.10;99.90
11136;DHT22;5622;50.840;4.948;2023-05-29T05:33:10;13.10;99.90
11136;DHT22;5622;50.840;4.948;2023-05-29T05:35:37;13.10;99.90
11136;DHT22;5622;50.840;4.948;2023-05-29T05:38:04;13.10;99.90
11136;DHT22;5622;50.840;4.948;2023-05-29T05:40:31;13.10;99.90
11136;DHT22;5622;50.840;4.948;2023-05-29T05:42:58;13.10;99.90
11136;DHT22;5622;50.840;4.948;2023-05-29T05:45:27;13.10;99.90
11136;DHT22;5622;50.840;4.948;2023-05-29T05:47:56;13.10;99.90
11136;DHT22;5622;50.840;4.948;2023-05-29T05:50:23;13.20;99.90
11136;DHT22;5622;50.840;4.948;2023-05-29T05:52:50;13.20;99.90
11136;DHT22;5622;50.840;4.948;2023-05-29T05:55:17;13.10;99.90
11136;DHT22;5622;50.840;4.948;2023-05-29T05:57:45;13.20;99.90
11136;DHT22;5622;50.840;4.948;2023-05-29T06:00:13;13.20;99.90
11136;DHT22;5622;50.840;4.948;2023-05-29T06:02:41;13.20;99.90
11136;DHT22;5622;50.840;4.948;2023-05-29T06:05:10;13.20;99.90
11136;DHT22;5622;50.840;4.948;2023-05-29T06:07:37;13.20;99.90
11136;DHT22;5622;50.840;4.948;2023-05-29T06:10:05;13.30;99.90
11136;DHT22;5622;50.840;4.948;2023-05-29T06:12:33;13.20;99.90
11136;DHT22;5622;50.840;4.948;2023-05-29T06:15:01;13.30;99.90
11136;DHT22;5622;50.840;4.948;2023-05-29T06:17:29;13.40;99.90
11136;DHT22;5622;50.840;4.948;2023-05-29T06:19:58;13.40;99.90
11136;DHT22;5622;50.840;4.948;2023-05-29T06:22:25;13.40;99.90
11136;DHT22;5622;50.840;4.948;2023-05-29T06:24:52;13.50;99.90
11136;DHT22;5622;50.840;4.948;2023-05-29T06:27:20;13.50;99.90
11136;DHT22;5622;50.840;4.948;2023-05-29T06:29:49;13.50;99.90
11136;DHT22;5622;50.840;4.948;2023-05-29T06:32:16;13.60;99.90
11136;DHT22;5622;50.840;4.948;2023-05-29T06:34:43;13.60;99.90
11136;DHT22;5622;50.840;4.948;2023-05-29T06:37:11;13.60;99.90
11136;DHT22;5622;50.840;4.948;2023-05-29T06:39:38;13.70;99.90
11136;DHT22;5622;50.840;4.948;2023-05-29T06:42:07;13.70;99.90
11136;DHT22;5622;50.840;4.948;2023-05-29T06:44:35;13.70;99.90
11136;DHT22;5622;50.840;4.948;2023-05-29T06:47:02;13.70;99.90
11136;DHT22;5622;50.840;4.948;2023-05-29T06:49:29;13.80;99.90
11136;DHT22;5622;50.840;4.948;2023-05-29T06:51:56;13.80;99.90
11136;DHT22;5622;50.840;4.948;2023-05-29T06:54:25;13.90;99.90
11136;DHT22;5622;50.840;4.948;2023-05-29T06:56:52;13.90;99.90
11136;DHT22;5622;50.840;4.948;2023-05-29T06:59:20;14.00;99.90
11136;DHT22;5622;50.840;4.948;2023-05-29T07:01:47;14.10;99.90
11136;DHT22;5622;50.840;4.948;2023-05-29T07:04:14;14.20;99.90
11136;DHT22;5622;50.840;4.948;2023-05-29T07:06:41;14.30;99.90
11136;DHT22;5622;50.840;4.948;2023-05-29T07:09:08;14.40;99.90
11136;DHT22;5622;50.840;4.948;2023-05-29T07:11:38;14.60;99.90
11136;DHT22;5622;50.840;4.948;2023-05-29T07:14:05;14.80;99.90
11136;DHT22;5622;50.840;4.948;2023-05-29T07:16:32;15.00;99.90
11136;DHT22;5622;50.840;4.948;2023-05-29T07:18:59;15.20;99.90
11136;DHT22;5622;50.840;4.948;2023-05-29T07:21:26;15.30;99.90
11136;DHT22;5622;50.840;4.948;2023-05-29T07:23:53;15.50;99.90
11136;DHT22;5622;50.840;4.948;2023-05-29T07:26:20;15.60;99.90
11136;DHT22;5622;50.840;4.948;2023-05-29T07:28:50;15.70;99.90
11136;DHT22;5622;50.840;4.948;2023-05-29T07:31:17;15.90;99.90
11136;DHT22;5622;50.840;4.948;2023-05-29T07:33:44;16.10;99.90
11136;DHT22;5622;50.840;4.948;2023-05-29T07:36:11;16.20;99.90
11136;DHT22;5622;50.840;4.948;2023-05-29T07:38:38;16.40;99.90
11136;DHT22;5622;50.840;4.948;2023-05-29T07:41:05;16.50;99.90
11136;DHT22;5622;50.840;4.948;2023-05-29T07:43:33;16.70;99.90
11136;DHT22;5622;50.840;4.948;2023-05-29T07:46:01;16.80;99.90
11136;DHT22;5622;50.840;4.948;2023-05-29T07:48:28;16.90;99.90
11136;DHT22;5622;50.840;4.948;2023-05-29T07:50:55;17.00;99.90
11136;DHT22;5622;50.840;4.948;2023-05-29T07:53:23;17.20;99.90
11136;DHT22;5622;50.840;4.948;2023-05-29T07:55:50;17.40;99.90
11136;DHT22;5622;50.840;4.948;2023-05-29T07:58:17;17.50;99.90
11136;DHT22;5622;50.840;4.948;2023-05-29T08:00:44;17.60;99.90
11136;DHT22;5622;50.840;4.948;2023-05-29T08:03:13;17.70;99.90
11136;DHT22;5622;50.840;4.948;2023-05-29T08:05:41;17.90;99.90
11136;DHT22;5622;50.840;4.948;2023-05-29T08:08:08;18.00;99.90
11136;DHT22;5622;50.840;4.948;2023-05-29T08:10:37;18.20;99.90
11136;DHT22;5622;50.840;4.948;2023-05-29T08:13:43;18.30;99.90
11136;DHT22;5622;50.840;4.948;2023-05-29T08:16:10;18.50;99.90
11136;DHT22;5622;50.840;4.948;2023-05-29T08:18:39;18.60;99.20
11136;DHT22;5622;50.840;4.948;2023-05-29T08:21:07;18.70;99.80
11136;DHT22;5622;50.840;4.948;2023-05-29T08:23:34;18.80;99.50
11136;DHT22;5622;50.840;4.948;2023-05-29T08:26:02;18.90;99.00
11136;DHT22;5622;50.840;4.948;2023-05-29T08:28:29;19.00;99.50
11136;DHT22;5622;50.840;4.948;2023-05-29T08:30:58;19.20;98.80
11136;DHT22;5622;50.840;4.948;2023-05-29T08:33:25;19.30;98.10
11136;DHT22;5622;50.840;4.948;2023-05-29T08:35:52;19.40;98.20
11136;DHT22;5622;50.840;4.948;2023-05-29T08:38:19;19.50;98.00
11136;DHT22;5622;50.840;4.948;2023-05-29T08:40:47;19.60;97.70
11136;DHT22;5622;50.840;4.948;2023-05-29T08:43:17;19.70;97.50
11136;DHT22;5622;50.840;4.948;2023-05-29T08:45:48;19.80;97.10
11136;DHT22;5622;50.840;4.948;2023-05-29T08:48:23;19.90;96.80
11136;DHT22;5622;50.840;4.948;2023-05-29T08:50:53;20.10;96.00
11136;DHT22;5622;50.840;4.948;2023-05-29T08:53:21;20.10;95.90
11136;DHT22;5622;50.840;4.948;2023-05-29T08:55:49;20.20;96.50
11136;DHT22;5622;50.840;4.948;2023-05-29T08:58:18;20.30;95.00
11136;DHT22;5622;50.840;4.948;2023-05-29T09:00:47;20.40;96.30
11136;DHT22;5622;50.840;4.948;2023-05-29T09:03:15;20.50;95.90
11136;DHT22;5622;50.840;4.948;2023-05-29T09:05:44;20.60;96.00
11136;DHT22;5622;50.840;4.948;2023-05-29T09:08:12;20.80;96.30
11136;DHT22;5622;50.840;4.948;2023-05-29T09:10:40;20.90;94.20
11136;DHT22;5622;50.840;4.948;2023-05-29T09:13:08;20.90;94.60
11136;DHT22;5622;50.840;4.948;2023-05-29T09:15:37;20.90;93.90
11136;DHT22;5622;50.840;4.948;2023-05-29T09:18:06;21.00;94.70
11136;DHT22;5622;50.840;4.948;2023-05-29T09:20:34;21.00;95.00
11136;DHT22;5622;50.840;4.948;2023-05-29T09:23:05;21.10;95.20
11136;DHT22;5622;50.840;4.948;2023-05-29T09:25:34;21.10;94.40
11136;DHT22;5622;50.840;4.948;2023-05-29T09:28:03;21.20;94.70
11136;DHT22;5622;50.840;4.948;2023-05-29T09:30:33;21.20;93.90
11136;DHT22;5622;50.840;4.948;2023-05-29T09:33:02;21.20;94.00
11136;DHT22;5622;50.840;4.948;2023-05-29T09:35:36;21.20;93.20
11136;DHT22;5622;50.840;4.948;2023-05-29T09:38:06;21.20;94.70
11136;DHT22;5622;50.840;4.948;2023-05-29T09:40:35;21.40;94.10
11136;DHT22;5622;50.840;4.948;2023-05-29T09:43:03;21.40;93.70
11136;DHT22;5622;50.840;4.948;2023-05-29T09:45:36;21.50;93.90
11136;DHT22;5622;50.840;4.948;2023-05-29T09:48:04;21.60;92.80
11136;DHT22;5622;50.840;4.948;2023-05-29T09:50:31;21.60;93.70
11136;DHT22;5622;50.840;4.948;2023-05-29T09:53:00;21.70;92.80
11136;DHT22;5622;50.840;4.948;2023-05-29T09:55:30;21.70;93.10
11136;DHT22;5622;50.840;4.948;2023-05-29T09:57:59;21.80;94.00
11136;DHT22;5622;50.840;4.948;2023-05-29T10:00:26;21.80;92.70
11136;DHT22;5622;50.840;4.948;2023-05-29T10:02:53;21.90;91.80
11136;DHT22;5622;50.840;4.948;2023-05-29T10:05:21;21.90;93.70
11136;DHT22;5622;50.840;4.948;2023-05-29T10:07:50;21.90;92.10
11136;DHT22;5622;50.840;4.948;2023-05-29T10:10:19;22.00;92.40
11136;DHT22;5622;50.840;4.948;2023-05-29T10:12:49;21.90;91.30
11136;DHT22;5622;50.840;4.948;2023-05-29T10:15:17;21.90;91.90
11136;DHT22;5622;50.840;4.948;2023-05-29T10:17:51;21.80;92.30
11136;DHT22;5622;50.840;4.948;2023-05-29T10:20:20;21.70;91.70
11136;DHT22;5622;50.840;4.948;2023-05-29T10:22:51;21.50;91.00
11136;DHT22;5622;50.840;4.948;2023-05-29T10:25:20;21.30;91.40
11136;DHT22;5622;50.840;4.948;2023-05-29T10:27:49;21.20;91.40
11136;DHT22;5622;50.840;4.948;2023-05-29T10:30:25;21.10;91.20
11136;DHT22;5622;50.840;4.948;2023-05-29T10:36:01;20.80;91.20
11136;DHT22;5622;50.840;4.948;2023-05-29T10:38:30;20.60;91.30
11136;DHT22;5622;50.840;4.948;2023-05-29T10:41:30;20.60;91.60
11136;DHT22;5622;50.840;4.948;2023-05-29T10:44:01;20.50;92.20
11136;DHT22;5622;50.840;4.948;2023-05-29T10:47:01;20.40;91.10
11136;DHT22;5622;50.840;4.948;2023-05-29T10:49:29;20.40;92.50
11136;DHT22;5622;50.840;4.948;2023-05-29T10:51:57;20.40;92.50
11136;DHT22;5622;50.840;4.948;2023-05-29T10:54:25;20.60;93.60
11136;DHT22;5622;50.840;4.948;2023-05-29T10:56:55;20.70;92.30
11136;DHT22;5622;50.840;4.948;2023-05-29T10:59:23;21.00;93.10
11136;DHT22;5622;50.840;4.948;2023-05-29T11:01:53;21.10;92.90
11136;DHT22;5622;50.840;4.948;2023-05-29T11:04:27;21.20;92.00
11136;DHT22;5622;50.840;4.948;2023-05-29T11:06:57;21.40;91.40
11136;DHT22;5622;50.840;4.948;2023-05-29T11:09:29;21.50;92.40
11136;DHT22;5622;50.840;4.948;2023-05-29T11:12:13;21.60;92.50
11136;DHT22;5622;50.840;4.948;2023-05-29T11:14:53;21.60;91.30
11136;DHT22;5622;50.840;4.948;2023-05-29T11:17:31;21.60;90.60
11136;DHT22;5622;50.840;4.948;2023-05-29T11:20:02;21.40;89.80
11136;DHT22;5622;50.840;4.948;2023-05-29T11:22:43;21.30;90.50
11136;DHT22;5622;50.840;4.948;2023-05-29T11:25:14;21.10;91.00
11136;DHT22;5622;50.840;4.948;2023-05-29T11:27:41;21.10;90.70
11136;DHT22;5622;50.840;4.948;2023-05-29T11:30:11;21.00;90.50
11136;DHT22;5622;50.840;4.948;2023-05-29T11:32:40;20.90;91.10
11136;DHT22;5622;50.840;4.948;2023-05-29T11:35:08;20.80;91.10
11136;DHT22;5622;50.840;4.948;2023-05-29T11:37:36;20.70;90.90
11136;DHT22;5622;50.840;4.948;2023-05-29T11:40:06;20.70;91.70
11136;DHT22;5622;50.840;4.948;2023-05-29T11:42:34;20.60;91.40
11136;DHT22;5622;50.840;4.948;2023-05-29T11:45:13;20.60;91.50
11136;DHT22;5622;50.840;4.948;2023-05-29T11:47:54;20.60;91.00
11136;DHT22;5622;50.840;4.948;2023-05-29T11:50:22;20.50;90.80
11136;DHT22;5622;50.840;4.948;2023-05-29T11:52:49;20.50;91.90
11136;DHT22;5622;50.840;4.948;2023-05-29T11:55:18;20.50;91.90
11136;DHT22;5622;50.840;4.948;2023-05-29T11:57:46;20.50;92.00
11136;DHT22;5622;50.840;4.948;2023-05-29T12:00:16;20.50;91.90
11136;DHT22;5622;50.840;4.948;2023-05-29T12:02:44;20.50;92.10
11136;DHT22;5622;50.840;4.948;2023-05-29T12:05:13;20.50;92.30
11136;DHT22;5622;50.840;4.948;2023-05-29T12:07:47;20.50;92.00
11136;DHT22;5622;50.840;4.948;2023-05-29T12:10:16;20.50;92.20
11136;DHT22;5622;50.840;4.948;2023-05-29T12:12:47;20.50;92.70
11136;DHT22;5622;50.840;4.948;2023-05-29T12:15:16;20.50;92.90
11136;DHT22;5622;50.840;4.948;2023-05-29T12:17:44;20.40;92.20
11136;DHT22;5622;50.840;4.948;2023-05-29T12:20:12;20.50;92.30
11136;DHT22;5622;50.840;4.948;2023-05-29T12:22:41;20.50;92.80
11136;DHT22;5622;50.840;4.948;2023-05-29T12:25:10;20.50;92.90
11136;DHT22;5622;50.840;4.948;2023-05-29T12:27:38;20.50;92.80
11136;DHT22;5622;50.840;4.948;2023-05-29T12:30:09;20.50;91.20
11136;DHT22;5622;50.840;4.948;2023-05-29T12:32:39;20.50;91.60
11136;DHT22;5622;50.840;4.948;2023-05-29T12:35:12;20.50;92.20
11136;DHT22;5622;50.840;4.948;2023-05-29T12:37:43;20.50;91.80
11136;DHT22;5622;50.840;4.948;2023-05-29T12:40:14;20.50;91.10
11136;DHT22;5622;50.840;4.948;2023-05-29T12:42:42;20.50;92.50
11136;DHT22;5622;50.840;4.948;2023-05-29T12:45:09;20.40;91.90
11136;DHT22;5622;50.840;4.948;2023-05-29T12:47:44;20.40;91.30
11136;DHT22;5622;50.840;4.948;2023-05-29T12:50:24;20.40;91.70
11136;DHT22;5622;50.840;4.948;2023-05-29T12:52:59;20.40;92.00
11136;DHT22;5622;50.840;4.948;2023-05-29T12:55:29;20.40;90.80
11136;DHT22;5622;50.840;4.948;2023-05-29T12:57:59;20.40;91.30
11136;DHT22;5622;50.840;4.948;2023-05-29T13:00:26;20.40;91.40
11136;DHT22;5622;50.840;4.948;2023-05-29T13:02:55;20.40;92.20
11136;DHT22;5622;50.840;4.948;2023-05-29T13:05:22;20.50;92.00
11136;DHT22;5622;50.840;4.948;2023-05-29T13:07:50;20.50;92.20
11136;DHT22;5622;50.840;4.948;2023-05-29T13:10:18;20.50;91.90
11136;DHT22;5622;50.840;4.948;2023-05-29T13:12:46;20.50;91.10
11136;DHT22;5622;50.840;4.948;2023-05-29T13:15:14;20.40;91.30
11136;DHT22;5622;50.840;4.948;2023-05-29T13:17:41;20.40;91.60
11136;DHT22;5622;50.840;4.948;2023-05-29T13:20:12;20.40;91.10
11136;DHT22;5622;50.840;4.948;2023-05-29T13:22:40;20.40;91.70
11136;DHT22;5622;50.840;4.948;2023-05-29T13:25:09;20.40;91.70
11136;DHT22;5622;50.840;4.948;2023-05-29T13:27:37;20.40;91.30
11136;DHT22;5622;50.840;4.948;2023-05-29T13:30:06;20.40;90.50
11136;DHT22;5622;50.840;4.948;2023-05-29T13:32:34;20.40;91.10
11136;DHT22;5622;50.840;4.948;2023-05-29T13:35:01;20.30;91.10
11136;DHT22;5622;50.840;4.948;2023-05-29T13:37:30;20.30;91.30
11136;DHT22;5622;50.840;4.948;2023-05-29T13:39:58;20.30;91.70
11136;DHT22;5622;50.840;4.948;2023-05-29T13:42:25;20.30;90.80
11136;DHT22;5622;50.840;4.948;2023-05-29T13:44:53;20.30;91.10
11136;DHT22;5622;50.840;4.948;2023-05-29T13:47:20;20.20;91.20
11136;DHT22;5622;50.840;4.948;2023-05-29T13:49:47;20.30;91.70
11136;DHT22;5622;50.840;4.948;2023-05-29T13:52:14;20.30;91.90
11136;DHT22;5622;50.840;4.948;2023-05-29T13:54:43;20.30;91.70
11136;DHT22;5622;50.840;4.948;2023-05-29T13:57:10;20.30;91.10
11136;DHT22;5622;50.840;4.948;2023-05-29T13:59:37;20.30;91.10
11136;DHT22;5622;50.840;4.948;2023-05-29T14:02:06;20.30;92.10
11136;DHT22;5622;50.840;4.948;2023-05-29T14:04:34;20.40;91.80
11136;DHT22;5622;50.840;4.948;2023-05-29T14:07:01;20.30;91.60
11136;DHT22;5622;50.840;4.948;2023-05-29T14:09:28;20.40;91.20
11136;DHT22;5622;50.840;4.948;2023-05-29T14:11:58;20.30;90.80
11136;DHT22;5622;50.840;4.948;2023-05-29T14:14:26;20.30;90.90
11136;DHT22;5622;50.840;4.948;2023-05-29T14:16:53;20.30;90.60
11136;DHT22;5622;50.840;4.948;2023-05-29T14:19:21;20.30;90.00
11136;DHT22;5622;50.840;4.948;2023-05-29T14:21:48;20.30;91.40
11136;DHT22;5622;50.840;4.948;2023-05-29T14:24:15;20.30;91.00
11136;DHT22;5622;50.840;4.948;2023-05-29T14:26:43;20.30;91.10
11136;DHT22;5622;50.840;4.948;2023-05-29T14:29:14;20.30;91.30
11136;DHT22;5622;50.840;4.948;2023-05-29T14:31:41;20.30;91.40
11136;DHT22;5622;50.840;4.948;2023-05-29T14:34:09;20.30;91.70
11136;DHT22;5622;50.840;4.948;2023-05-29T14:36:36;20.30;92.10
11136;DHT22;5622;50.840;4.948;2023-05-29T14:39:03;20.40;90.70
11136;DHT22;5622;50.840;4.948;2023-05-29T14:41:31;20.30;91.00
11136;DHT22;5622;50.840;4.948;2023-05-29T14:43:59;20.30;91.80
11136;DHT22;5622;50.840;4.948;2023-05-29T14:46:27;20.30;91.50
11136;DHT22;5622;50.840;4.948;2023-05-29T14:48:57;20.40;91.00
11136;DHT22;5622;50.840;4.948;2023-05-29T14:51:24;20.30;90.60
11136;DHT22;5622;50.840;4.948;2023-05-29T14:53:51;20.40;90.80
11136;DHT22;5622;50.840;4.948;2023-05-29T14:56:19;20.30;90.60
11136;DHT22;5622;50.840;4.948;2023-05-29T14:58:46;20.30;89.00
11136;DHT22;5622;50.840;4.948;2023-05-29T15:01:15;20.30;89.80
11136;DHT22;5622;50.840;4.948;2023-05-29T15:03:44;20.30;89.30
11136;DHT22;5622;50.840;4.948;2023-05-29T15:06:11;20.20;90.30
11136;DHT22;5622;50.840;4.948;2023-05-29T15:08:38;20.20;89.80
11136;DHT22;5622;50.840;4.948;2023-05-29T15:11:07;20.20;89.70
11136;DHT22;5622;50.840;4.948;2023-05-29T15:13:35;20.20;90.30
11136;DHT22;5622;50.840;4.948;2023-05-29T15:16:02;20.20;90.60
11136;DHT22;5622;50.840;4.948;2023-05-29T15:18:29;20.20;90.20
11136;DHT22;5622;50.840;4.948;2023-05-29T15:20:58;20.20;89.70
11136;DHT22;5622;50.840;4.948;2023-05-29T15:23:25;20.10;89.70
11136;DHT22;5622;50.840;4.948;2023-05-29T15:25:53;20.10;90.70
11136;DHT22;5622;50.840;4.948;2023-05-29T15:28:20;20.10;90.50
11136;DHT22;5622;50.840;4.948;2023-05-29T15:30:47;20.10;90.10
11136;DHT22;5622;50.840;4.948;2023-05-29T15:33:14;20.10;89.50
11136;DHT22;5622;50.840;4.948;2023-05-29T15:35:42;20.10;90.10
11136;DHT22;5622;50.840;4.948;2023-05-29T15:38:10;20.10;89.60
11136;DHT22;5622;50.840;4.948;2023-05-29T15:40:38;20.10;90.00
11136;DHT22;5622;50.840;4.948;2023-05-29T15:43:06;20.00;90.00
11136;DHT22;5622;50.840;4.948;2023-05-29T15:45:33;20.00;90.10
11136;DHT22;5622;50.840;4.948;2023-05-29T15:48:00;20.00;89.60
11136;DHT22;5622;50.840;4.948;2023-05-29T15:50:27;20.00;90.00
11136;DHT22;5622;50.840;4.948;2023-05-29T15:52:54;20.00;89.70
11136;DHT22;5622;50.840;4.948;2023-05-29T15:55:23;20.00;89.20
11136;DHT22;5622;50.840;4.948;2023-05-29T15:57:50;19.90;88.50